Trin Even — LK5053 — position and weather

sailwx.info

Track history (hours):
 
Tides and Currents Weather Stations Pressure Air Temp Water Temp Dewpoint Dewpoint Depression Visibility Wind Speed Wind Dir Waves Ship Positions

Trin Even

Last reported at 2017-Nov-16 09:05 UTC. Time now 2018-Feb-25 04:16 UTC.
Position N 70°52' E 029°06'.
Warning: this ship's position is months out of date.

Length 10 m.

Type: Fishing. MMSI: 257156240.

Date/timePositionNaut miles runAvg speedWind from/ knotsBaromVisibWave heightAir tempDewpointWater temp
2017-Nov-16 09:05N 70°52' E 029°06'0 2.4
2017-Nov-16 08:58N 70°52' E 029°05'0 0.0
2017-Nov-16 08:28N 70°52' E 029°05'0 0.0
2017-Nov-16 07:58N 70°52' E 029°05'0 0.3
2017-Nov-16 07:28N 70°51' E 029°06'0 0.0
2017-Nov-16 06:58N 70°51' E 029°06'0 0.0
2017-Nov-16 06:28N 70°51' E 029°06'0 0.0
2017-Nov-16 05:52N 70°51' E 029°06'0 0.0
2017-Nov-16 05:28N 70°51' E 029°06'0 0.0
2017-Nov-16 04:58N 70°51' E 029°06'0 0.0
2017-Nov-16 04:28N 70°51' E 029°06'0 0.0
2017-Nov-16 03:58N 70°51' E 029°06'0 0.0
2017-Nov-16 03:28N 70°51' E 029°06'0 0.0
2017-Nov-16 02:58N 70°51' E 029°06'0 0.0
2017-Nov-16 02:28N 70°51' E 029°06'0 0.0
2017-Nov-16 01:58N 70°51' E 029°06'0 0.0
2017-Nov-16 01:28N 70°51' E 029°06'0 0.0
2017-Nov-16 00:58N 70°51' E 029°06'0 0.0
2017-Nov-16 00:28N 70°51' E 029°06'0 0.0
2017-Nov-15 23:58N 70°51' E 029°06'0 0.0
2017-Nov-15 23:28N 70°51' E 029°06'0 0.0
2017-Nov-15 22:58N 70°51' E 029°06'0 0.0
2017-Nov-15 22:28N 70°51' E 029°06'0 0.0
2017-Nov-15 21:58N 70°51' E 029°06'0 0.0
2017-Nov-15 21:28N 70°51' E 029°06'0 0.0
2017-Nov-15 20:58N 70°51' E 029°06'0 0.0
2017-Nov-15 20:28N 70°51' E 029°06'0 0.0
2017-Nov-15 19:58N 70°51' E 029°06'0 0.0
2017-Nov-15 19:28N 70°51' E 029°06'0 0.0
2017-Nov-15 18:58N 70°51' E 029°06'0 0.0
2017-Nov-15 18:28N 70°51' E 029°06'0 0.0
2017-Nov-15 17:58N 70°51' E 029°06'0 0.0
2017-Nov-15 17:28N 70°51' E 029°06'0 0.0
2017-Nov-15 16:58N 70°51' E 029°06'0 0.0
2017-Nov-15 16:28N 70°51' E 029°06'0 0.0
2017-Nov-15 15:58N 70°51' E 029°06'0 0.0
2017-Nov-15 15:28N 70°51' E 029°06'0 0.0
2017-Nov-15 14:58N 70°51' E 029°06'0 0.0
2017-Nov-15 14:28N 70°51' E 029°06'0 0.0
2017-Nov-15 13:58N 70°51' E 029°06'2 3.3
2017-Nov-15 13:30N 70°52' E 029°10'3 5.7
2017-Nov-15 12:59N 70°52' E 029°19'2 4.1
2017-Nov-15 12:30N 70°53' E 029°25'1 1.4
2017-Nov-15 12:00N 70°53' E 029°24'1 1.5
2017-Nov-15 11:30N 70°54' E 029°22'1 1.5
2017-Nov-15 11:00N 70°55' E 029°20'1 1.4
2017-Nov-15 10:30N 70°55' E 029°19'2 4.0
2017-Nov-15 10:00N 70°54' E 029°24'1 2.2
2017-Nov-15 09:29N 70°53' E 029°27'1 1.3
2017-Nov-15 08:59N 70°54' E 029°25'1 1.4
2017-Nov-15 08:30N 70°54' E 029°24'1 1.4
2017-Nov-15 07:59N 70°55' E 029°23'1 1.2
2017-Nov-15 07:30N 70°55' E 029°21'2 3.6
2017-Nov-15 07:00N 70°54' E 029°17'3 5.3
2017-Nov-15 06:30N 70°53' E 029°10'2 3.6
2017-Nov-15 06:00N 70°51' E 029°06'0 0.0
2017-Nov-15 05:30N 70°51' E 029°06'0 0.0
2017-Nov-15 05:00N 70°51' E 029°06'0 0.0
2017-Nov-15 04:30N 70°51' E 029°06'0 0.0
2017-Nov-15 04:00N 70°51' E 029°06'0 0.0
2017-Nov-15 03:30N 70°51' E 029°06'0 0.0
2017-Nov-15 03:00N 70°51' E 029°06'0 0.0
2017-Nov-15 02:30N 70°51' E 029°06'0 0.0
2017-Nov-15 02:00N 70°51' E 029°06'0 0.0
2017-Nov-15 01:30N 70°51' E 029°06'0 0.0
2017-Nov-15 01:00N 70°51' E 029°06'0 0.0
2017-Nov-15 00:30N 70°51' E 029°06'0 0.0
2017-Nov-15 00:00N 70°51' E 029°06'0 0.0
2017-Nov-14 23:30N 70°51' E 029°06'0 0.0
2017-Nov-14 23:00N 70°51' E 029°06'0 0.0
2017-Nov-14 22:30N 70°51' E 029°06'0 0.0
2017-Nov-14 22:00N 70°51' E 029°06'0 0.0
2017-Nov-14 21:30N 70°51' E 029°06'3 5.6
2017-Nov-14 21:00N 70°52' E 029°14'3 6.3
2017-Nov-14 20:29N 70°53' E 029°24'2 3.2
2017-Nov-14 20:00N 70°54' E 029°21'1 1.7
2017-Nov-14 19:30N 70°55' E 029°21'2 4.5
2017-Nov-14 18:59N 70°54' E 029°26'0 0.6
2017-Nov-14 18:30N 70°53' E 029°27'2 4.2
2017-Nov-14 18:00N 70°53' E 029°20'3 5.8
2017-Nov-14 17:30N 70°52' E 029°12'2 4.1
2017-Nov-14 16:58N 70°52' E 029°05'0 0.0
2017-Nov-14 16:28N 70°52' E 029°05'0 0.1
2017-Nov-14 16:01N 70°52' E 029°06'0 0.2
2017-Nov-14 15:28N 70°51' E 029°06'0 0.0
2017-Nov-14 14:58N 70°51' E 029°06'0 0.0
2017-Nov-14 14:28N 70°51' E 029°06'0 0.0
2017-Nov-14 13:58N 70°51' E 029°06'0 0.0
2017-Nov-14 13:28N 70°51' E 029°06'0 0.0
2017-Nov-14 12:58N 70°51' E 029°06'0 0.0
2017-Nov-14 12:28N 70°51' E 029°06'0 0.0
2017-Nov-14 11:58N 70°51' E 029°06'0 0.0
2017-Nov-14 11:28N 70°51' E 029°06'0 0.0
2017-Nov-14 11:01N 70°51' E 029°06'0 0.0
2017-Nov-14 10:28N 70°51' E 029°06'0 0.0
2017-Nov-14 09:58N 70°51' E 029°06'0 0.0
2017-Nov-14 09:28N 70°51' E 029°06'0 0.0
2017-Nov-14 09:00N 70°51' E 029°06'0 0.0
2017-Nov-14 08:29N 70°51' E 029°06'0 0.0
2017-Nov-14 07:59N 70°51' E 029°06'0 0.0
2017-Nov-14 07:29N 70°51' E 029°06'0 0.0
2017-Nov-14 06:59N 70°51' E 029°06'0 0.0
2017-Nov-14 06:29N 70°51' E 029°06'0 0.0
2017-Nov-14 05:59N 70°51' E 029°06'0 0.0
2017-Nov-14 05:29N 70°51' E 029°06'0 0.0
2017-Nov-14 04:59N 70°51' E 029°06'0 0.0
2017-Nov-14 04:29N 70°51' E 029°06'0 0.0
2017-Nov-14 03:59N 70°51' E 029°06'0 0.0
2017-Nov-14 03:26N 70°51' E 029°06'0 0.0
2017-Nov-14 02:59N 70°51' E 029°06'0 0.0
2017-Nov-14 02:29N 70°51' E 029°06'0 0.0
2017-Nov-14 01:59N 70°51' E 029°06'0 0.0
2017-Nov-14 01:29N 70°51' E 029°06'0 0.0
2017-Nov-14 00:59N 70°51' E 029°06'0 0.0
2017-Nov-14 00:29N 70°51' E 029°06'0 0.0
2017-Nov-13 23:56N 70°51' E 029°06'0 0.0
2017-Nov-13 23:29N 70°51' E 029°06'0 0.0
2017-Nov-13 22:59N 70°51' E 029°06'0 0.0
2017-Nov-13 22:29N 70°51' E 029°06'0 0.0
2017-Nov-13 21:59N 70°51' E 029°06'14 0.7
2017-Nov-13 02:00N 71°00' E 029°40'0 0.4
2017-Nov-13 01:30N 71°00' E 029°40'0 0.5
2017-Nov-13 01:00N 70°60' E 029°39'1 1.3
2017-Nov-13 00:30N 70°60' E 029°41'1 2.2
2017-Nov-13 00:00N 70°59' E 029°44'2 4.2
2017-Nov-12 23:30N 71°00' E 029°38'2 4.5
2017-Nov-12 23:00N 71°02' E 029°33'2 4.1
2017-Nov-12 22:30N 71°03' E 029°28'3 5.3
2017-Nov-12 22:00N 71°05' E 029°21'2 3.3
2017-Nov-12 21:30N 71°05' E 029°17'2 4.3
2017-Nov-12 21:00N 71°03' E 029°19'3 5.5
2017-Nov-12 20:29N 71°01' E 029°21'3 6.2
2017-Nov-12 20:00N 70°58' E 029°20'3 6.5
2017-Nov-12 19:29N 70°54' E 029°17'3 6.8
2017-Nov-12 19:00N 70°52' E 029°09'1 2.6
2017-Nov-12 18:27N 70°52' E 029°05'0 0.0
2017-Nov-12 18:00N 70°52' E 029°05'0 0.0
2017-Nov-12 17:30N 70°52' E 029°05'0 0.3
2017-Nov-12 17:00N 70°51' E 029°06'0 0.0
2017-Nov-12 16:30N 70°51' E 029°06'0 0.0
2017-Nov-12 16:00N 70°51' E 029°06'0 0.0
2017-Nov-12 15:30N 70°51' E 029°06'0 0.0
2017-Nov-12 15:00N 70°51' E 029°06'0 0.0
2017-Nov-12 14:30N 70°51' E 029°06'0 0.0
2017-Nov-12 14:00N 70°51' E 029°06'0 0.0
2017-Nov-12 13:30N 70°51' E 029°06'0 0.0
2017-Nov-12 13:00N 70°51' E 029°06'0 0.0
2017-Nov-12 12:30N 70°51' E 029°06'0 0.0
2017-Nov-12 12:00N 70°51' E 029°06'0 0.0
2017-Nov-12 11:27N 70°51' E 029°06'0 0.0
2017-Nov-12 11:00N 70°51' E 029°06'0 0.0
2017-Nov-12 10:30N 70°51' E 029°06'0 0.0
2017-Nov-12 10:00N 70°51' E 029°06'0 0.0
2017-Nov-12 09:30N 70°51' E 029°06'0 0.0
2017-Nov-12 09:00N 70°51' E 029°06'0 0.0
2017-Nov-12 08:30N 70°51' E 029°06'0 0.0
2017-Nov-12 08:00N 70°51' E 029°06'0 0.0
2017-Nov-12 07:30N 70°51' E 029°06'0 0.0
2017-Nov-12 06:54N 70°51' E 029°06'0 0.0
2017-Nov-12 06:27N 70°51' E 029°06'0 0.0
2017-Nov-12 06:00N 70°51' E 029°06'0 0.0
2017-Nov-12 05:30N 70°51' E 029°06'0 0.0
2017-Nov-12 05:00N 70°51' E 029°06'0 0.0
2017-Nov-12 04:30N 70°51' E 029°06'0 0.0
2017-Nov-12 04:00N 70°51' E 029°06'0 0.0
2017-Nov-12 03:30N 70°51' E 029°06'0 0.0
2017-Nov-12 03:00N 70°51' E 029°06'0 0.0
2017-Nov-12 02:30N 70°51' E 029°06'0 0.0
2017-Nov-12 02:00N 70°51' E 029°06'0 0.0
2017-Nov-12 01:30N 70°51' E 029°06'0 0.0
2017-Nov-12 01:00N 70°51' E 029°06'0 0.0
2017-Nov-12 00:27N 70°51' E 029°06'0 0.0
2017-Nov-12 00:00N 70°51' E 029°06'0 0.0
2017-Nov-11 23:30N 70°51' E 029°06'0 0.0
2017-Nov-11 23:00N 70°51' E 029°06'0 0.0
2017-Nov-11 22:30N 70°51' E 029°06'0 0.0
2017-Nov-11 22:00N 70°51' E 029°06'0 0.0
2017-Nov-11 21:30N 70°51' E 029°06'0 0.0
2017-Nov-11 21:00N 70°51' E 029°06'0 0.0
2017-Nov-11 20:30N 70°51' E 029°06'0 0.0
2017-Nov-11 19:57N 70°51' E 029°06'0 0.0
2017-Nov-11 19:30N 70°51' E 029°06'0 0.0
2017-Nov-11 19:00N 70°51' E 029°06'0 0.0
2017-Nov-11 18:30N 70°51' E 029°06'0 0.0
2017-Nov-11 18:00N 70°51' E 029°06'0 0.0
2017-Nov-11 17:30N 70°51' E 029°06'0 0.0
2017-Nov-11 17:00N 70°51' E 029°06'0 0.0
2017-Nov-11 16:30N 70°51' E 029°06'0 0.0
2017-Nov-11 16:00N 70°51' E 029°06'0 0.0
2017-Nov-11 15:30N 70°51' E 029°06'0 0.0
2017-Nov-11 15:00N 70°51' E 029°06'0 0.0
2017-Nov-11 14:30N 70°51' E 029°06'0 0.0
2017-Nov-11 14:00N 70°51' E 029°06'0 0.0
2017-Nov-11 13:30N 70°51' E 029°06'0 0.0
2017-Nov-11 13:00N 70°51' E 029°06'0 0.0
2017-Nov-11 12:30N 70°51' E 029°06'0 0.0
2017-Nov-11 12:00N 70°51' E 029°06'0 0.0
2017-Nov-11 11:30N 70°51' E 029°06'0 0.0
2017-Nov-11 10:57N 70°51' E 029°06'0 0.0
2017-Nov-11 10:30N 70°51' E 029°06'0 0.0
2017-Nov-11 10:00N 70°51' E 029°06'0 0.0
2017-Nov-11 09:30N 70°51' E 029°06'0 0.0
2017-Nov-11 09:00N 70°51' E 029°06'0 0.0
2017-Nov-11 08:30N 70°51' E 029°06'0 0.0
2017-Nov-11 08:00N 70°51' E 029°06'0 0.0
2017-Nov-11 07:30N 70°51' E 029°06'0 0.0
2017-Nov-11 07:00N 70°51' E 029°06'0 0.0
2017-Nov-11 06:30N 70°51' E 029°06'0 0.0
2017-Nov-11 06:00N 70°51' E 029°06'0 0.0
2017-Nov-11 05:30N 70°51' E 029°06'0 0.0
2017-Nov-11 05:00N 70°51' E 029°06'0 0.0
2017-Nov-11 04:30N 70°51' E 029°06'0 0.0
2017-Nov-11 04:00N 70°51' E 029°06'0 0.0
2017-Nov-11 03:30N 70°51' E 029°06'0 0.0
2017-Nov-11 03:00N 70°51' E 029°06'0 0.0
2017-Nov-11 02:30N 70°51' E 029°06'0 0.0
2017-Nov-11 02:00N 70°51' E 029°06'0 0.0
2017-Nov-11 01:30N 70°51' E 029°06'0 0.0
2017-Nov-11 01:00N 70°51' E 029°06'0 0.0
2017-Nov-11 00:30N 70°51' E 029°06'0 0.0
2017-Nov-11 00:00N 70°51' E 029°06'0 0.0
2017-Nov-10 23:30N 70°51' E 029°06'0 0.0
2017-Nov-10 23:00N 70°51' E 029°06'0 0.0
2017-Nov-10 22:30N 70°51' E 029°06'0 0.0
2017-Nov-10 22:00N 70°51' E 029°06'0 0.0
2017-Nov-10 21:30N 70°51' E 029°06'0 0.0
2017-Nov-10 21:00N 70°51' E 029°06'0 0.0
2017-Nov-10 20:30N 70°51' E 029°06'0 0.0
2017-Nov-10 20:00N 70°51' E 029°06'0 0.0
2017-Nov-10 19:27N 70°51' E 029°06'0 0.0
2017-Nov-10 19:00N 70°51' E 029°06'0 0.0
2017-Nov-10 18:27N 70°51' E 029°06'0 0.0
2017-Nov-10 18:00N 70°51' E 029°06'0 0.0
2017-Nov-10 17:30N 70°51' E 029°06'0 0.0
2017-Nov-10 17:00N 70°51' E 029°06'0 0.0
2017-Nov-10 16:30N 70°51' E 029°06'0 0.0
2017-Nov-10 16:00N 70°51' E 029°06'0 0.0
2017-Nov-10 15:27N 70°51' E 029°06'0 0.0
2017-Nov-10 15:00N 70°51' E 029°06'0 0.0
2017-Nov-10 14:27N 70°51' E 029°06'0 0.0
2017-Nov-10 14:00N 70°51' E 029°06'0 0.0
2017-Nov-10 13:27N 70°51' E 029°06'0 0.0
2017-Nov-10 13:00N 70°51' E 029°06'0 0.0
2017-Nov-10 12:30N 70°51' E 029°06'0 0.0
2017-Nov-10 11:57N 70°51' E 029°06'0 0.0
2017-Nov-10 11:30N 70°51' E 029°06'0 0.0
2017-Nov-10 11:00N 70°51' E 029°06'0 0.0
2017-Nov-10 10:30N 70°51' E 029°06'0 0.0
2017-Nov-10 10:00N 70°51' E 029°06'0 0.0
2017-Nov-10 09:30N 70°51' E 029°06'0 0.0
2017-Nov-10 09:00N 70°51' E 029°06'0 0.0
2017-Nov-10 08:30N 70°51' E 029°06'0 0.0
2017-Nov-10 08:00N 70°51' E 029°06'0 0.0
2017-Nov-10 07:30N 70°51' E 029°06'0 0.0
2017-Nov-10 07:00N 70°51' E 029°06'0 0.0
2017-Nov-10 06:30N 70°51' E 029°06'0 0.0
2017-Nov-10 06:00N 70°51' E 029°06'0 0.0
2017-Nov-10 05:27N 70°51' E 029°06'0 0.0
2017-Nov-10 05:00N 70°51' E 029°06'0 0.0
2017-Nov-10 04:30N 70°51' E 029°06'0 0.0
2017-Nov-10 04:00N 70°51' E 029°06'0 0.0
2017-Nov-10 03:30N 70°51' E 029°06'0 0.0
2017-Nov-10 03:00N 70°51' E 029°06'0 0.0
2017-Nov-10 02:30N 70°51' E 029°06'0 0.0
2017-Nov-10 02:00N 70°51' E 029°06'0 0.0
2017-Nov-10 01:30N 70°51' E 029°06'0 0.0
2017-Nov-10 01:00N 70°51' E 029°06'0 0.0
2017-Nov-10 00:30N 70°51' E 029°06'0 0.0
2017-Nov-10 00:00N 70°51' E 029°06'0 0.0
2017-Nov-09 23:30N 70°51' E 029°06'0 0.0
2017-Nov-09 23:00N 70°51' E 029°06'0 0.0
2017-Nov-09 22:30N 70°51' E 029°06'0 0.0
2017-Nov-09 22:00N 70°51' E 029°06'0 0.0
2017-Nov-09 21:30N 70°51' E 029°06'0 0.0
2017-Nov-09 21:00N 70°51' E 029°06'0 0.0
2017-Nov-09 20:30N 70°51' E 029°06'0 0.0
2017-Nov-09 20:00N 70°51' E 029°06'0 0.0
2017-Nov-09 19:30N 70°51' E 029°06'0 0.0
2017-Nov-09 19:00N 70°51' E 029°06'0 0.0
2017-Nov-09 18:30N 70°51' E 029°06'0 0.0
2017-Nov-09 18:00N 70°51' E 029°06'0 0.0
2017-Nov-09 17:30N 70°51' E 029°06'0 0.0
2017-Nov-09 17:00N 70°51' E 029°06'0 0.0
2017-Nov-09 16:30N 70°51' E 029°06'0 0.0
2017-Nov-09 16:00N 70°51' E 029°06'0 0.0
2017-Nov-09 15:30N 70°51' E 029°06'0 0.0
2017-Nov-09 15:00N 70°51' E 029°06'0 0.0
2017-Nov-09 14:30N 70°51' E 029°06'0 0.0
2017-Nov-09 14:00N 70°51' E 029°06'0 0.0
2017-Nov-09 13:30N 70°51' E 029°06'0 0.0
2017-Nov-09 13:00N 70°51' E 029°06'0 0.0
2017-Nov-09 12:30N 70°51' E 029°06'0 0.0
2017-Nov-09 12:00N 70°51' E 029°06'0 0.0
2017-Nov-09 11:30N 70°51' E 029°06'0 0.0
2017-Nov-09 11:00N 70°51' E 029°06'0 0.0
2017-Nov-09 10:30N 70°51' E 029°06'0 0.0
2017-Nov-09 10:00N 70°51' E 029°06'0 0.0
2017-Nov-09 09:30N 70°51' E 029°06'0 0.0
2017-Nov-09 09:00N 70°51' E 029°06'0 0.0
2017-Nov-09 08:30N 70°51' E 029°06'0 0.0
2017-Nov-09 08:00N 70°51' E 029°06'0 0.0
2017-Nov-09 07:30N 70°51' E 029°06'0 0.0
2017-Nov-09 07:00N 70°51' E 029°06'0 0.0
2017-Nov-09 06:30N 70°51' E 029°06'0 0.0
2017-Nov-09 06:00N 70°51' E 029°06'0 0.0
2017-Nov-09 05:30N 70°51' E 029°06'0 0.0
2017-Nov-09 05:00N 70°51' E 029°06'0 0.0
2017-Nov-09 04:30N 70°51' E 029°06'0 0.0
2017-Nov-09 04:00N 70°51' E 029°06'0 0.0
2017-Nov-09 03:27N 70°51' E 029°06'0 0.0
2017-Nov-09 03:00N 70°51' E 029°06'0 0.0
2017-Nov-09 02:30N 70°51' E 029°06'0 0.0
2017-Nov-09 02:00N 70°51' E 029°06'0 0.0
2017-Nov-09 01:30N 70°51' E 029°06'0 0.0
2017-Nov-09 01:00N 70°51' E 029°06'0 0.0
2017-Nov-09 00:30N 70°51' E 029°06'0 0.0
2017-Nov-09 00:00N 70°51' E 029°06'0 0.0
2017-Nov-08 23:30N 70°51' E 029°06'0 0.0
2017-Nov-08 23:00N 70°51' E 029°06'0 0.0
2017-Nov-08 22:30N 70°51' E 029°06'0 0.0
2017-Nov-08 22:00N 70°51' E 029°06'0 0.0
2017-Nov-08 21:30N 70°51' E 029°06'0 0.0
2017-Nov-08 21:00N 70°51' E 029°06'0 0.0
2017-Nov-08 20:30N 70°51' E 029°06'0 0.0
2017-Nov-08 20:00N 70°51' E 029°06'0 0.0
2017-Nov-08 19:30N 70°51' E 029°06'0 0.0
2017-Nov-08 19:00N 70°51' E 029°06'0 0.0
2017-Nov-08 18:30N 70°51' E 029°06'0 0.0
2017-Nov-08 18:00N 70°51' E 029°06'0 0.0
2017-Nov-08 17:30N 70°51' E 029°06'0 0.2
2017-Nov-08 17:00N 70°52' E 029°05'0 0.0
2017-Nov-08 16:28N 70°52' E 029°05'0 0.0
2017-Nov-08 15:58N 70°52' E 029°05'0 0.0
2017-Nov-08 15:28N 70°52' E 029°05'0 0.0
2017-Nov-08 14:58N 70°52' E 029°05'0 0.0
2017-Nov-08 14:30N 70°52' E 029°05'0 0.1
2017-Nov-08 13:29N 70°51' E 029°06'0 0.0
2017-Nov-08 12:32N 70°51' E 029°06'0 0.0
2017-Nov-08 12:26N 70°51' E 029°06'0 0.0
2017-Nov-08 11:47N 70°51' E 029°06'0 0.0
2017-Nov-08 09:05N 70°51' E 029°06'0 0.5
2017-Nov-08 08:55N 70°51' E 029°06'0 0.0
2017-Nov-08 08:28N 70°51' E 029°06'0 0.0
2017-Nov-08 07:58N 70°51' E 029°06'0 0.0
2017-Nov-08 07:28N 70°51' E 029°06'0 0.0
2017-Nov-08 06:58N 70°51' E 029°06'0 0.0
2017-Nov-08 06:28N 70°51' E 029°06'0 0.0
2017-Nov-08 05:58N 70°51' E 029°06'0 0.0
2017-Nov-08 05:25N 70°51' E 029°06'0 0.0
2017-Nov-08 04:58N 70°51' E 029°06'0 0.0
2017-Nov-08 04:28N 70°51' E 029°06'0 0.0
2017-Nov-08 03:58N 70°51' E 029°06'0 0.0
2017-Nov-08 03:28N 70°51' E 029°06'0 0.0
2017-Nov-08 02:58N 70°51' E 029°06'0 0.0
2017-Nov-08 02:28N 70°51' E 029°06'0 0.0
2017-Nov-08 01:58N 70°51' E 029°06'0 0.0
2017-Nov-08 01:28N 70°51' E 029°06'0 0.0
2017-Nov-08 00:58N 70°51' E 029°06'0 0.0
2017-Nov-08 00:25N 70°51' E 029°06'0 0.0
2017-Nov-07 22:40N 70°51' E 029°06'0 0.0
2017-Nov-07 22:28N 70°51' E 029°06'0 0.0
2017-Nov-07 21:58N 70°51' E 029°06'0 0.0
2017-Nov-07 21:28N 70°51' E 029°06'0 0.0
2017-Nov-07 20:58N 70°51' E 029°06'0 0.0
2017-Nov-07 20:28N 70°51' E 029°06'0 0.0
2017-Nov-07 19:58N 70°51' E 029°06'0 0.0
2017-Nov-07 19:28N 70°51' E 029°06'0 0.0
2017-Nov-07 18:58N 70°51' E 029°06'0 0.0
2017-Nov-07 18:28N 70°51' E 029°06'0 0.0
2017-Nov-07 17:58N 70°51' E 029°06'0 0.0
2017-Nov-07 17:28N 70°51' E 029°06'0 0.0
2017-Nov-07 16:55N 70°51' E 029°06'0 0.0
2017-Nov-07 16:28N 70°51' E 029°06'0 0.0
2017-Nov-07 15:58N 70°51' E 029°06'0 0.0
2017-Nov-07 15:28N 70°51' E 029°06'0 0.0
2017-Nov-07 14:58N 70°51' E 029°06'0 0.0
2017-Nov-07 14:28N 70°51' E 029°06'0 0.0
2017-Nov-07 13:58N 70°51' E 029°06'0 0.0
2017-Nov-07 13:28N 70°51' E 029°06'0 0.0
2017-Nov-07 12:58N 70°51' E 029°06'0 0.0
2017-Nov-07 12:28N 70°51' E 029°06'0 0.0
2017-Nov-07 11:58N 70°51' E 029°06'0 0.0
2017-Nov-07 11:28N 70°51' E 029°06'0 0.0
2017-Nov-07 10:58N 70°51' E 029°06'0 0.0
2017-Nov-07 10:29N 70°51' E 029°06'0 0.0
2017-Nov-07 09:59N 70°51' E 029°06'0 0.0
2017-Nov-07 09:29N 70°51' E 029°06'0 0.0
2017-Nov-07 08:59N 70°51' E 029°06'0 0.0
2017-Nov-07 08:29N 70°51' E 029°06'0 0.0
2017-Nov-07 07:59N 70°51' E 029°06'0 0.0
2017-Nov-07 07:29N 70°51' E 029°06'0 0.0
2017-Nov-07 06:59N 70°51' E 029°06'0 0.0
2017-Nov-07 06:29N 70°51' E 029°06'0 0.0
2017-Nov-07 05:59N 70°51' E 029°06'0 0.0
2017-Nov-07 05:29N 70°51' E 029°06'0 0.0
2017-Nov-07 04:59N 70°51' E 029°06'0 0.0
2017-Nov-07 04:29N 70°51' E 029°06'0 0.0
2017-Nov-07 03:59N 70°51' E 029°06'0 0.0
2017-Nov-07 03:29N 70°51' E 029°06'0 0.0
2017-Nov-07 02:59N 70°51' E 029°06'0 0.0
2017-Nov-07 02:29N 70°51' E 029°06'0 0.0
2017-Nov-07 01:59N 70°51' E 029°06'0 0.0
2017-Nov-07 01:29N 70°51' E 029°06'0 0.0
2017-Nov-07 00:59N 70°51' E 029°06'0 0.0
2017-Nov-07 00:29N 70°51' E 029°06'0 0.0
2017-Nov-06 23:59N 70°51' E 029°06'0 0.0
2017-Nov-06 23:29N 70°51' E 029°06'0 0.0
2017-Nov-06 22:59N 70°51' E 029°06'0 0.0
2017-Nov-06 22:29N 70°51' E 029°06'0 0.0
2017-Nov-06 21:59N 70°51' E 029°06'0 0.0
2017-Nov-06 21:29N 70°51' E 029°06'0 0.0
2017-Nov-06 20:59N 70°51' E 029°06'0 0.0
2017-Nov-06 20:29N 70°51' E 029°06'  
Track history (hours):
 
Tides and Currents Weather Stations Pressure Air Temp Water Temp Dewpoint Dewpoint Depression Visibility Wind Speed Wind Dir Waves Ship Positions

Trin Even

Last reported at 2017-Nov-16 09:05 UTC. Time now 2018-Feb-25 04:16 UTC.
Position N 70°52' E 029°06'.
Warning: this ship's position is months out of date.

Length 10 m.

Type: Fishing. MMSI: 257156240.

Date/timePositionNaut miles runAvg speedWind from/ knotsBaromVisibWave heightAir tempDewpointWater temp
2017-Nov-16 09:05N 70°52' E 029°06'0 2.4
2017-Nov-16 08:58N 70°52' E 029°05'0 0.0
2017-Nov-16 08:28N 70°52' E 029°05'0 0.0
2017-Nov-16 07:58N 70°52' E 029°05'0 0.3
2017-Nov-16 07:28N 70°51' E 029°06'0 0.0
2017-Nov-16 06:58N 70°51' E 029°06'0 0.0
2017-Nov-16 06:28N 70°51' E 029°06'0 0.0
2017-Nov-16 05:52N 70°51' E 029°06'0 0.0
2017-Nov-16 05:28N 70°51' E 029°06'0 0.0
2017-Nov-16 04:58N 70°51' E 029°06'0 0.0
2017-Nov-16 04:28N 70°51' E 029°06'0 0.0
2017-Nov-16 03:58N 70°51' E 029°06'0 0.0
2017-Nov-16 03:28N 70°51' E 029°06'0 0.0
2017-Nov-16 02:58N 70°51' E 029°06'0 0.0
2017-Nov-16 02:28N 70°51' E 029°06'0 0.0
2017-Nov-16 01:58N 70°51' E 029°06'0 0.0
2017-Nov-16 01:28N 70°51' E 029°06'0 0.0
2017-Nov-16 00:58N 70°51' E 029°06'0 0.0
2017-Nov-16 00:28N 70°51' E 029°06'0 0.0
2017-Nov-15 23:58N 70°51' E 029°06'0 0.0
2017-Nov-15 23:28N 70°51' E 029°06'0 0.0
2017-Nov-15 22:58N 70°51' E 029°06'0 0.0
2017-Nov-15 22:28N 70°51' E 029°06'0 0.0
2017-Nov-15 21:58N 70°51' E 029°06'0 0.0
2017-Nov-15 21:28N 70°51' E 029°06'0 0.0
2017-Nov-15 20:58N 70°51' E 029°06'0 0.0
2017-Nov-15 20:28N 70°51' E 029°06'0 0.0
2017-Nov-15 19:58N 70°51' E 029°06'0 0.0
2017-Nov-15 19:28N 70°51' E 029°06'0 0.0
2017-Nov-15 18:58N 70°51' E 029°06'0 0.0
2017-Nov-15 18:28N 70°51' E 029°06'0 0.0
2017-Nov-15 17:58N 70°51' E 029°06'0 0.0
2017-Nov-15 17:28N 70°51' E 029°06'0 0.0
2017-Nov-15 16:58N 70°51' E 029°06'0 0.0
2017-Nov-15 16:28N 70°51' E 029°06'0 0.0
2017-Nov-15 15:58N 70°51' E 029°06'0 0.0
2017-Nov-15 15:28N 70°51' E 029°06'0 0.0
2017-Nov-15 14:58N 70°51' E 029°06'0 0.0
2017-Nov-15 14:28N 70°51' E 029°06'0 0.0
2017-Nov-15 13:58N 70°51' E 029°06'2 3.3
2017-Nov-15 13:30N 70°52' E 029°10'3 5.7
2017-Nov-15 12:59N 70°52' E 029°19'2 4.1
2017-Nov-15 12:30N 70°53' E 029°25'1 1.4
2017-Nov-15 12:00N 70°53' E 029°24'1 1.5
2017-Nov-15 11:30N 70°54' E 029°22'1 1.5
2017-Nov-15 11:00N 70°55' E 029°20'1 1.4
2017-Nov-15 10:30N 70°55' E 029°19'2 4.0
2017-Nov-15 10:00N 70°54' E 029°24'1 2.2
2017-Nov-15 09:29N 70°53' E 029°27'1 1.3
2017-Nov-15 08:59N 70°54' E 029°25'1 1.4
2017-Nov-15 08:30N 70°54' E 029°24'1 1.4
2017-Nov-15 07:59N 70°55' E 029°23'1 1.2
2017-Nov-15 07:30N 70°55' E 029°21'2 3.6
2017-Nov-15 07:00N 70°54' E 029°17'3 5.3
2017-Nov-15 06:30N 70°53' E 029°10'2 3.6
2017-Nov-15 06:00N 70°51' E 029°06'0 0.0
2017-Nov-15 05:30N 70°51' E 029°06'0 0.0
2017-Nov-15 05:00N 70°51' E 029°06'0 0.0
2017-Nov-15 04:30N 70°51' E 029°06'0 0.0
2017-Nov-15 04:00N 70°51' E 029°06'0 0.0
2017-Nov-15 03:30N 70°51' E 029°06'0 0.0
2017-Nov-15 03:00N 70°51' E 029°06'0 0.0
2017-Nov-15 02:30N 70°51' E 029°06'0 0.0
2017-Nov-15 02:00N 70°51' E 029°06'0 0.0
2017-Nov-15 01:30N 70°51' E 029°06'0 0.0
2017-Nov-15 01:00N 70°51' E 029°06'0 0.0
2017-Nov-15 00:30N 70°51' E 029°06'0 0.0
2017-Nov-15 00:00N 70°51' E 029°06'0 0.0
2017-Nov-14 23:30N 70°51' E 029°06'0 0.0
2017-Nov-14 23:00N 70°51' E 029°06'0 0.0
2017-Nov-14 22:30N 70°51' E 029°06'0 0.0
2017-Nov-14 22:00N 70°51' E 029°06'0 0.0
2017-Nov-14 21:30N 70°51' E 029°06'3 5.6
2017-Nov-14 21:00N 70°52' E 029°14'3 6.3
2017-Nov-14 20:29N 70°53' E 029°24'2 3.2
2017-Nov-14 20:00N 70°54' E 029°21'1 1.7
2017-Nov-14 19:30N 70°55' E 029°21'2 4.5
2017-Nov-14 18:59N 70°54' E 029°26'0 0.6
2017-Nov-14 18:30N 70°53' E 029°27'2 4.2
2017-Nov-14 18:00N 70°53' E 029°20'3 5.8
2017-Nov-14 17:30N 70°52' E 029°12'2 4.1
2017-Nov-14 16:58N 70°52' E 029°05'0 0.0
2017-Nov-14 16:28N 70°52' E 029°05'0 0.1
2017-Nov-14 16:01N 70°52' E 029°06'0 0.2
2017-Nov-14 15:28N 70°51' E 029°06'0 0.0
2017-Nov-14 14:58N 70°51' E 029°06'0 0.0
2017-Nov-14 14:28N 70°51' E 029°06'0 0.0
2017-Nov-14 13:58N 70°51' E 029°06'0 0.0
2017-Nov-14 13:28N 70°51' E 029°06'0 0.0
2017-Nov-14 12:58N 70°51' E 029°06'0 0.0
2017-Nov-14 12:28N 70°51' E 029°06'0 0.0
2017-Nov-14 11:58N 70°51' E 029°06'0 0.0
2017-Nov-14 11:28N 70°51' E 029°06'0 0.0
2017-Nov-14 11:01N 70°51' E 029°06'0 0.0
2017-Nov-14 10:28N 70°51' E 029°06'0 0.0
2017-Nov-14 09:58N 70°51' E 029°06'0 0.0
2017-Nov-14 09:28N 70°51' E 029°06'0 0.0
2017-Nov-14 09:00N 70°51' E 029°06'0 0.0
2017-Nov-14 08:29N 70°51' E 029°06'0 0.0
2017-Nov-14 07:59N 70°51' E 029°06'0 0.0
2017-Nov-14 07:29N 70°51' E 029°06'0 0.0
2017-Nov-14 06:59N 70°51' E 029°06'0 0.0
2017-Nov-14 06:29N 70°51' E 029°06'0 0.0
2017-Nov-14 05:59N 70°51' E 029°06'0 0.0
2017-Nov-14 05:29N 70°51' E 029°06'0 0.0
2017-Nov-14 04:59N 70°51' E 029°06'0 0.0
2017-Nov-14 04:29N 70°51' E 029°06'0 0.0
2017-Nov-14 03:59N 70°51' E 029°06'0 0.0
2017-Nov-14 03:26N 70°51' E 029°06'0 0.0
2017-Nov-14 02:59N 70°51' E 029°06'0 0.0
2017-Nov-14 02:29N 70°51' E 029°06'0 0.0
2017-Nov-14 01:59N 70°51' E 029°06'0 0.0
2017-Nov-14 01:29N 70°51' E 029°06'0 0.0
2017-Nov-14 00:59N 70°51' E 029°06'0 0.0
2017-Nov-14 00:29N 70°51' E 029°06'0 0.0
2017-Nov-13 23:56N 70°51' E 029°06'0 0.0
2017-Nov-13 23:29N 70°51' E 029°06'0 0.0
2017-Nov-13 22:59N 70°51' E 029°06'0 0.0
2017-Nov-13 22:29N 70°51' E 029°06'0 0.0
2017-Nov-13 21:59N 70°51' E 029°06'14 0.7
2017-Nov-13 02:00N 71°00' E 029°40'0 0.4
2017-Nov-13 01:30N 71°00' E 029°40'0 0.5
2017-Nov-13 01:00N 70°60' E 029°39'1 1.3
2017-Nov-13 00:30N 70°60' E 029°41'1 2.2
2017-Nov-13 00:00N 70°59' E 029°44'2 4.2
2017-Nov-12 23:30N 71°00' E 029°38'2 4.5
2017-Nov-12 23:00N 71°02' E 029°33'2 4.1
2017-Nov-12 22:30N 71°03' E 029°28'3 5.3
2017-Nov-12 22:00N 71°05' E 029°21'2 3.3
2017-Nov-12 21:30N 71°05' E 029°17'2 4.3
2017-Nov-12 21:00N 71°03' E 029°19'3 5.5
2017-Nov-12 20:29N 71°01' E 029°21'3 6.2
2017-Nov-12 20:00N 70°58' E 029°20'3 6.5
2017-Nov-12 19:29N 70°54' E 029°17'3 6.8
2017-Nov-12 19:00N 70°52' E 029°09'1 2.6
2017-Nov-12 18:27N 70°52' E 029°05'0 0.0
2017-Nov-12 18:00N 70°52' E 029°05'0 0.0
2017-Nov-12 17:30N 70°52' E 029°05'0 0.3
2017-Nov-12 17:00N 70°51' E 029°06'0 0.0
2017-Nov-12 16:30N 70°51' E 029°06'0 0.0
2017-Nov-12 16:00N 70°51' E 029°06'0 0.0
2017-Nov-12 15:30N 70°51' E 029°06'0 0.0
2017-Nov-12 15:00N 70°51' E 029°06'0 0.0
2017-Nov-12 14:30N 70°51' E 029°06'0 0.0
2017-Nov-12 14:00N 70°51' E 029°06'0 0.0
2017-Nov-12 13:30N 70°51' E 029°06'0 0.0
2017-Nov-12 13:00N 70°51' E 029°06'0 0.0
2017-Nov-12 12:30N 70°51' E 029°06'0 0.0
2017-Nov-12 12:00N 70°51' E 029°06'0 0.0
2017-Nov-12 11:27N 70°51' E 029°06'0 0.0
2017-Nov-12 11:00N 70°51' E 029°06'0 0.0
2017-Nov-12 10:30N 70°51' E 029°06'0 0.0
2017-Nov-12 10:00N 70°51' E 029°06'0 0.0
2017-Nov-12 09:30N 70°51' E 029°06'0 0.0
2017-Nov-12 09:00N 70°51' E 029°06'0 0.0
2017-Nov-12 08:30N 70°51' E 029°06'0 0.0
2017-Nov-12 08:00N 70°51' E 029°06'0 0.0
2017-Nov-12 07:30N 70°51' E 029°06'0 0.0
2017-Nov-12 06:54N 70°51' E 029°06'0 0.0
2017-Nov-12 06:27N 70°51' E 029°06'0 0.0
2017-Nov-12 06:00N 70°51' E 029°06'0 0.0
2017-Nov-12 05:30N 70°51' E 029°06'0 0.0
2017-Nov-12 05:00N 70°51' E 029°06'0 0.0
2017-Nov-12 04:30N 70°51' E 029°06'0 0.0
2017-Nov-12 04:00N 70°51' E 029°06'0 0.0
2017-Nov-12 03:30N 70°51' E 029°06'0 0.0
2017-Nov-12 03:00N 70°51' E 029°06'0 0.0
2017-Nov-12 02:30N 70°51' E 029°06'0 0.0
2017-Nov-12 02:00N 70°51' E 029°06'0 0.0
2017-Nov-12 01:30N 70°51' E 029°06'0 0.0
2017-Nov-12 01:00N 70°51' E 029°06'0 0.0
2017-Nov-12 00:27N 70°51' E 029°06'0 0.0
2017-Nov-12 00:00N 70°51' E 029°06'0 0.0
2017-Nov-11 23:30N 70°51' E 029°06'0 0.0
2017-Nov-11 23:00N 70°51' E 029°06'0 0.0
2017-Nov-11 22:30N 70°51' E 029°06'0 0.0
2017-Nov-11 22:00N 70°51' E 029°06'0 0.0
2017-Nov-11 21:30N 70°51' E 029°06'0 0.0
2017-Nov-11 21:00N 70°51' E 029°06'0 0.0
2017-Nov-11 20:30N 70°51' E 029°06'0 0.0
2017-Nov-11 19:57N 70°51' E 029°06'0 0.0
2017-Nov-11 19:30N 70°51' E 029°06'0 0.0
2017-Nov-11 19:00N 70°51' E 029°06'0 0.0
2017-Nov-11 18:30N 70°51' E 029°06'0 0.0
2017-Nov-11 18:00N 70°51' E 029°06'0 0.0
2017-Nov-11 17:30N 70°51' E 029°06'0 0.0
2017-Nov-11 17:00N 70°51' E 029°06'0 0.0
2017-Nov-11 16:30N 70°51' E 029°06'0 0.0
2017-Nov-11 16:00N 70°51' E 029°06'0 0.0
2017-Nov-11 15:30N 70°51' E 029°06'0 0.0
2017-Nov-11 15:00N 70°51' E 029°06'0 0.0
2017-Nov-11 14:30N 70°51' E 029°06'0 0.0
2017-Nov-11 14:00N 70°51' E 029°06'0 0.0
2017-Nov-11 13:30N 70°51' E 029°06'0 0.0
2017-Nov-11 13:00N 70°51' E 029°06'0 0.0
2017-Nov-11 12:30N 70°51' E 029°06'0 0.0
2017-Nov-11 12:00N 70°51' E 029°06'0 0.0
2017-Nov-11 11:30N 70°51' E 029°06'0 0.0
2017-Nov-11 10:57N 70°51' E 029°06'0 0.0
2017-Nov-11 10:30N 70°51' E 029°06'0 0.0
2017-Nov-11 10:00N 70°51' E 029°06'0 0.0
2017-Nov-11 09:30N 70°51' E 029°06'0 0.0
2017-Nov-11 09:00N 70°51' E 029°06'0 0.0
2017-Nov-11 08:30N 70°51' E 029°06'0 0.0
2017-Nov-11 08:00N 70°51' E 029°06'0 0.0
2017-Nov-11 07:30N 70°51' E 029°06'0 0.0
2017-Nov-11 07:00N 70°51' E 029°06'0 0.0
2017-Nov-11 06:30N 70°51' E 029°06'0 0.0
2017-Nov-11 06:00N 70°51' E 029°06'0 0.0
2017-Nov-11 05:30N 70°51' E 029°06'0 0.0
2017-Nov-11 05:00N 70°51' E 029°06'0 0.0
2017-Nov-11 04:30N 70°51' E 029°06'0 0.0
2017-Nov-11 04:00N 70°51' E 029°06'0 0.0
2017-Nov-11 03:30N 70°51' E 029°06'0 0.0
2017-Nov-11 03:00N 70°51' E 029°06'0 0.0
2017-Nov-11 02:30N 70°51' E 029°06'0 0.0
2017-Nov-11 02:00N 70°51' E 029°06'0 0.0
2017-Nov-11 01:30N 70°51' E 029°06'0 0.0
2017-Nov-11 01:00N 70°51' E 029°06'0 0.0
2017-Nov-11 00:30N 70°51' E 029°06'0 0.0
2017-Nov-11 00:00N 70°51' E 029°06'0 0.0
2017-Nov-10 23:30N 70°51' E 029°06'0 0.0
2017-Nov-10 23:00N 70°51' E 029°06'0 0.0
2017-Nov-10 22:30N 70°51' E 029°06'0 0.0
2017-Nov-10 22:00N 70°51' E 029°06'0 0.0
2017-Nov-10 21:30N 70°51' E 029°06'0 0.0
2017-Nov-10 21:00N 70°51' E 029°06'0 0.0
2017-Nov-10 20:30N 70°51' E 029°06'0 0.0
2017-Nov-10 20:00N 70°51' E 029°06'0 0.0
2017-Nov-10 19:27N 70°51' E 029°06'0 0.0
2017-Nov-10 19:00N 70°51' E 029°06'0 0.0
2017-Nov-10 18:27N 70°51' E 029°06'0 0.0
2017-Nov-10 18:00N 70°51' E 029°06'0 0.0
2017-Nov-10 17:30N 70°51' E 029°06'0 0.0
2017-Nov-10 17:00N 70°51' E 029°06'0 0.0
2017-Nov-10 16:30N 70°51' E 029°06'0 0.0
2017-Nov-10 16:00N 70°51' E 029°06'0 0.0
2017-Nov-10 15:27N 70°51' E 029°06'0 0.0
2017-Nov-10 15:00N 70°51' E 029°06'0 0.0
2017-Nov-10 14:27N 70°51' E 029°06'0 0.0
2017-Nov-10 14:00N 70°51' E 029°06'0 0.0
2017-Nov-10 13:27N 70°51' E 029°06'0 0.0
2017-Nov-10 13:00N 70°51' E 029°06'0 0.0
2017-Nov-10 12:30N 70°51' E 029°06'0 0.0
2017-Nov-10 11:57N 70°51' E 029°06'0 0.0
2017-Nov-10 11:30N 70°51' E 029°06'0 0.0
2017-Nov-10 11:00N 70°51' E 029°06'0 0.0
2017-Nov-10 10:30N 70°51' E 029°06'0 0.0
2017-Nov-10 10:00N 70°51' E 029°06'0 0.0
2017-Nov-10 09:30N 70°51' E 029°06'0 0.0
2017-Nov-10 09:00N 70°51' E 029°06'0 0.0
2017-Nov-10 08:30N 70°51' E 029°06'0 0.0
2017-Nov-10 08:00N 70°51' E 029°06'0 0.0
2017-Nov-10 07:30N 70°51' E 029°06'0 0.0
2017-Nov-10 07:00N 70°51' E 029°06'0 0.0
2017-Nov-10 06:30N 70°51' E 029°06'0 0.0
2017-Nov-10 06:00N 70°51' E 029°06'0 0.0
2017-Nov-10 05:27N 70°51' E 029°06'0 0.0
2017-Nov-10 05:00N 70°51' E 029°06'0 0.0
2017-Nov-10 04:30N 70°51' E 029°06'0 0.0
2017-Nov-10 04:00N 70°51' E 029°06'0 0.0
2017-Nov-10 03:30N 70°51' E 029°06'0 0.0
2017-Nov-10 03:00N 70°51' E 029°06'0 0.0
2017-Nov-10 02:30N 70°51' E 029°06'0 0.0
2017-Nov-10 02:00N 70°51' E 029°06'0 0.0
2017-Nov-10 01:30N 70°51' E 029°06'0 0.0
2017-Nov-10 01:00N 70°51' E 029°06'0 0.0
2017-Nov-10 00:30N 70°51' E 029°06'0 0.0
2017-Nov-10 00:00N 70°51' E 029°06'0 0.0
2017-Nov-09 23:30N 70°51' E 029°06'0 0.0
2017-Nov-09 23:00N 70°51' E 029°06'0 0.0
2017-Nov-09 22:30N 70°51' E 029°06'0 0.0
2017-Nov-09 22:00N 70°51' E 029°06'0 0.0
2017-Nov-09 21:30N 70°51' E 029°06'0 0.0
2017-Nov-09 21:00N 70°51' E 029°06'0 0.0
2017-Nov-09 20:30N 70°51' E 029°06'0 0.0
2017-Nov-09 20:00N 70°51' E 029°06'0 0.0
2017-Nov-09 19:30N 70°51' E 029°06'0 0.0
2017-Nov-09 19:00N 70°51' E 029°06'0 0.0
2017-Nov-09 18:30N 70°51' E 029°06'0 0.0
2017-Nov-09 18:00N 70°51' E 029°06'0 0.0
2017-Nov-09 17:30N 70°51' E 029°06'0 0.0
2017-Nov-09 17:00N 70°51' E 029°06'0 0.0
2017-Nov-09 16:30N 70°51' E 029°06'0 0.0
2017-Nov-09 16:00N 70°51' E 029°06'0 0.0
2017-Nov-09 15:30N 70°51' E 029°06'0 0.0
2017-Nov-09 15:00N 70°51' E 029°06'0 0.0
2017-Nov-09 14:30N 70°51' E 029°06'0 0.0
2017-Nov-09 14:00N 70°51' E 029°06'0 0.0
2017-Nov-09 13:30N 70°51' E 029°06'0 0.0
2017-Nov-09 13:00N 70°51' E 029°06'0 0.0
2017-Nov-09 12:30N 70°51' E 029°06'0 0.0
2017-Nov-09 12:00N 70°51' E 029°06'0 0.0
2017-Nov-09 11:30N 70°51' E 029°06'0 0.0
2017-Nov-09 11:00N 70°51' E 029°06'0 0.0
2017-Nov-09 10:30N 70°51' E 029°06'0 0.0
2017-Nov-09 10:00N 70°51' E 029°06'0 0.0
2017-Nov-09 09:30N 70°51' E 029°06'0 0.0
2017-Nov-09 09:00N 70°51' E 029°06'0 0.0
2017-Nov-09 08:30N 70°51' E 029°06'0 0.0
2017-Nov-09 08:00N 70°51' E 029°06'0 0.0
2017-Nov-09 07:30N 70°51' E 029°06'0 0.0
2017-Nov-09 07:00N 70°51' E 029°06'0 0.0
2017-Nov-09 06:30N 70°51' E 029°06'0 0.0
2017-Nov-09 06:00N 70°51' E 029°06'0 0.0
2017-Nov-09 05:30N 70°51' E 029°06'0 0.0
2017-Nov-09 05:00N 70°51' E 029°06'0 0.0
2017-Nov-09 04:30N 70°51' E 029°06'0 0.0
2017-Nov-09 04:00N 70°51' E 029°06'0 0.0
2017-Nov-09 03:27N 70°51' E 029°06'0 0.0
2017-Nov-09 03:00N 70°51' E 029°06'0 0.0
2017-Nov-09 02:30N 70°51' E 029°06'0 0.0
2017-Nov-09 02:00N 70°51' E 029°06'0 0.0
2017-Nov-09 01:30N 70°51' E 029°06'0 0.0
2017-Nov-09 01:00N 70°51' E 029°06'0 0.0
2017-Nov-09 00:30N 70°51' E 029°06'0 0.0
2017-Nov-09 00:00N 70°51' E 029°06'0 0.0
2017-Nov-08 23:30N 70°51' E 029°06'0 0.0
2017-Nov-08 23:00N 70°51' E 029°06'0 0.0
2017-Nov-08 22:30N 70°51' E 029°06'0 0.0
2017-Nov-08 22:00N 70°51' E 029°06'0 0.0
2017-Nov-08 21:30N 70°51' E 029°06'0 0.0
2017-Nov-08 21:00N 70°51' E 029°06'0 0.0
2017-Nov-08 20:30N 70°51' E 029°06'0 0.0
2017-Nov-08 20:00N 70°51' E 029°06'0 0.0
2017-Nov-08 19:30N 70°51' E 029°06'0 0.0
2017-Nov-08 19:00N 70°51' E 029°06'0 0.0
2017-Nov-08 18:30N 70°51' E 029°06'0 0.0
2017-Nov-08 18:00N 70°51' E 029°06'0 0.0
2017-Nov-08 17:30N 70°51' E 029°06'0 0.2
2017-Nov-08 17:00N 70°52' E 029°05'0 0.0
2017-Nov-08 16:28N 70°52' E 029°05'0 0.0
2017-Nov-08 15:58N 70°52' E 029°05'0 0.0
2017-Nov-08 15:28N 70°52' E 029°05'0 0.0
2017-Nov-08 14:58N 70°52' E 029°05'0 0.0
2017-Nov-08 14:30N 70°52' E 029°05'0 0.1
2017-Nov-08 13:29N 70°51' E 029°06'0 0.0
2017-Nov-08 12:32N 70°51' E 029°06'0 0.0
2017-Nov-08 12:26N 70°51' E 029°06'0 0.0
2017-Nov-08 11:47N 70°51' E 029°06'0 0.0
2017-Nov-08 09:05N 70°51' E 029°06'0 0.5
2017-Nov-08 08:55N 70°51' E 029°06'0 0.0
2017-Nov-08 08:28N 70°51' E 029°06'0 0.0
2017-Nov-08 07:58N 70°51' E 029°06'0 0.0
2017-Nov-08 07:28N 70°51' E 029°06'0 0.0
2017-Nov-08 06:58N 70°51' E 029°06'0 0.0
2017-Nov-08 06:28N 70°51' E 029°06'0 0.0
2017-Nov-08 05:58N 70°51' E 029°06'0 0.0
2017-Nov-08 05:25N 70°51' E 029°06'0 0.0
2017-Nov-08 04:58N 70°51' E 029°06'0 0.0
2017-Nov-08 04:28N 70°51' E 029°06'0 0.0
2017-Nov-08 03:58N 70°51' E 029°06'0 0.0
2017-Nov-08 03:28N 70°51' E 029°06'0 0.0
2017-Nov-08 02:58N 70°51' E 029°06'0 0.0
2017-Nov-08 02:28N 70°51' E 029°06'0 0.0
2017-Nov-08 01:58N 70°51' E 029°06'0 0.0
2017-Nov-08 01:28N 70°51' E 029°06'0 0.0
2017-Nov-08 00:58N 70°51' E 029°06'0 0.0
2017-Nov-08 00:25N 70°51' E 029°06'0 0.0
2017-Nov-07 22:40N 70°51' E 029°06'0 0.0
2017-Nov-07 22:28N 70°51' E 029°06'0 0.0
2017-Nov-07 21:58N 70°51' E 029°06'0 0.0
2017-Nov-07 21:28N 70°51' E 029°06'0 0.0
2017-Nov-07 20:58N 70°51' E 029°06'0 0.0
2017-Nov-07 20:28N 70°51' E 029°06'0 0.0
2017-Nov-07 19:58N 70°51' E 029°06'0 0.0
2017-Nov-07 19:28N 70°51' E 029°06'0 0.0
2017-Nov-07 18:58N 70°51' E 029°06'0 0.0
2017-Nov-07 18:28N 70°51' E 029°06'0 0.0
2017-Nov-07 17:58N 70°51' E 029°06'0 0.0
2017-Nov-07 17:28N 70°51' E 029°06'0 0.0
2017-Nov-07 16:55N 70°51' E 029°06'0 0.0
2017-Nov-07 16:28N 70°51' E 029°06'0 0.0
2017-Nov-07 15:58N 70°51' E 029°06'0 0.0
2017-Nov-07 15:28N 70°51' E 029°06'0 0.0
2017-Nov-07 14:58N 70°51' E 029°06'0 0.0
2017-Nov-07 14:28N 70°51' E 029°06'0 0.0
2017-Nov-07 13:58N 70°51' E 029°06'0 0.0
2017-Nov-07 13:28N 70°51' E 029°06'0 0.0
2017-Nov-07 12:58N 70°51' E 029°06'0 0.0
2017-Nov-07 12:28N 70°51' E 029°06'0 0.0
2017-Nov-07 11:58N 70°51' E 029°06'0 0.0
2017-Nov-07 11:28N 70°51' E 029°06'0 0.0
2017-Nov-07 10:58N 70°51' E 029°06'0 0.0
2017-Nov-07 10:29N 70°51' E 029°06'0 0.0
2017-Nov-07 09:59N 70°51' E 029°06'0 0.0
2017-Nov-07 09:29N 70°51' E 029°06'0 0.0
2017-Nov-07 08:59N 70°51' E 029°06'0 0.0
2017-Nov-07 08:29N 70°51' E 029°06'0 0.0
2017-Nov-07 07:59N 70°51' E 029°06'0 0.0
2017-Nov-07 07:29N 70°51' E 029°06'0 0.0
2017-Nov-07 06:59N 70°51' E 029°06'0 0.0
2017-Nov-07 06:29N 70°51' E 029°06'0 0.0
2017-Nov-07 05:59N 70°51' E 029°06'0 0.0
2017-Nov-07 05:29N 70°51' E 029°06'0 0.0
2017-Nov-07 04:59N 70°51' E 029°06'0 0.0
2017-Nov-07 04:29N 70°51' E 029°06'0 0.0
2017-Nov-07 03:59N 70°51' E 029°06'0 0.0
2017-Nov-07 03:29N 70°51' E 029°06'0 0.0
2017-Nov-07 02:59N 70°51' E 029°06'0 0.0
2017-Nov-07 02:29N 70°51' E 029°06'0 0.0
2017-Nov-07 01:59N 70°51' E 029°06'0 0.0
2017-Nov-07 01:29N 70°51' E 029°06'0 0.0
2017-Nov-07 00:59N 70°51' E 029°06'0 0.0
2017-Nov-07 00:29N 70°51' E 029°06'0 0.0
2017-Nov-06 23:59N 70°51' E 029°06'0 0.0
2017-Nov-06 23:29N 70°51' E 029°06'0 0.0
2017-Nov-06 22:59N 70°51' E 029°06'0 0.0
2017-Nov-06 22:29N 70°51' E 029°06'0 0.0
2017-Nov-06 21:59N 70°51' E 029°06'0 0.0
2017-Nov-06 21:29N 70°51' E 029°06'0 0.0
2017-Nov-06 20:59N 70°51' E 029°06'0 0.0
2017-Nov-06 20:29N 70°51' E 029°06'  

Dump ship's entire track history